createdAt,value
2018-05-24T00:00:44.598Z,90.56
2018-05-24T00:03:13.492Z,90.40
2018-05-24T00:05:44.223Z,89.97
2018-05-24T00:08:13.301Z,89.93
2018-05-24T00:10:42.108Z,90.13
2018-05-24T00:13:11.183Z,91.11
2018-05-24T00:15:40.191Z,91.45
2018-05-24T00:18:09.191Z,92.04
2018-05-24T00:20:38.855Z,92.54
2018-05-24T00:23:07.795Z,93.02
2018-05-24T00:25:36.677Z,93.33
2018-05-24T00:28:05.510Z,93.34
2018-05-24T00:30:34.467Z,93.81
2018-05-24T00:33:03.437Z,93.68
2018-05-24T00:35:32.332Z,93.30
2018-05-24T00:38:01.353Z,92.87
2018-05-24T00:40:31.266Z,92.71
2018-05-24T00:43:01.846Z,92.94
2018-05-24T00:45:30.799Z,92.76
2018-05-24T00:47:59.685Z,92.96
2018-05-24T00:50:28.630Z,93.18
2018-05-24T00:52:57.908Z,93.17
2018-05-24T00:55:38.539Z,93.19
2018-05-24T00:58:07.434Z,93.91
2018-05-24T01:00:36.314Z,94.19
2018-05-24T01:03:05.513Z,94.18
2018-05-24T01:05:34.257Z,94.51
2018-05-24T01:08:03.205Z,95.07
2018-05-24T01:10:32.916Z,94.92
2018-05-24T01:13:01.803Z,94.41
2018-05-24T01:15:30.700Z,94.17
2018-05-24T01:18:00.462Z,94.08
2018-05-24T01:20:29.508Z,94.38
2018-05-24T01:22:59.561Z,94.39
2018-05-24T01:28:02.836Z,94.16
2018-05-24T01:30:31.757Z,94.27
2018-05-24T01:33:00.667Z,94.56
2018-05-24T01:35:31.868Z,95.24
2018-05-24T01:38:00.950Z,95.68
2018-05-24T01:40:29.820Z,95.95
2018-05-24T01:42:59.858Z,95.76
2018-05-24T01:45:28.889Z,95.84
2018-05-24T01:47:57.846Z,95.70
2018-05-24T01:50:29.807Z,94.74
2018-05-24T01:53:00.734Z,93.35
2018-05-24T01:55:29.826Z,92.30
2018-05-24T01:57:59.737Z,91.31
2018-05-24T02:00:28.666Z,91.19
2018-05-24T02:02:57.575Z,91.01
2018-05-24T02:05:27.358Z,91.09
2018-05-24T02:07:56.280Z,91.20
2018-05-24T02:10:25.240Z,91.27
2018-05-24T02:12:54.341Z,91.49
2018-05-24T02:15:24.976Z,92.28
2018-05-24T02:17:54.070Z,92.80
2018-05-24T02:20:23.086Z,93.01
2018-05-24T02:22:52.369Z,92.32
2018-05-24T02:25:21.355Z,91.75
2018-05-24T02:27:50.280Z,91.33
2018-05-24T02:30:19.346Z,91.25
2018-05-24T02:32:52.439Z,90.77
2018-05-24T02:35:21.434Z,90.52
2018-05-24T02:37:50.529Z,90.53
2018-05-24T02:40:19.623Z,90.81
2018-05-24T02:42:48.551Z,91.24
2018-05-24T02:45:17.616Z,91.38
2018-05-24T02:47:46.613Z,91.36
2018-05-24T02:50:15.502Z,91.25
2018-05-24T02:52:44.391Z,91.18
2018-05-24T02:55:15.154Z,91.19
2018-05-24T02:57:44.027Z,90.85
2018-05-24T03:00:12.958Z,90.03
2018-05-24T03:02:43.005Z,89.03
2018-05-24T03:05:11.927Z,88.95
2018-05-24T03:07:41.944Z,87.99
2018-05-24T03:10:11.856Z,86.85
2018-05-24T03:12:40.752Z,83.60
2018-05-24T03:15:09.846Z,80.83
2018-05-24T03:17:38.982Z,78.08
2018-05-24T03:20:07.951Z,73.58
2018-05-24T03:22:37.956Z,69.37
2018-05-24T03:25:07.716Z,65.19
2018-05-24T03:27:36.657Z,61.90
2018-05-24T03:30:05.651Z,58.98
2018-05-24T03:35:08.622Z,54.18
2018-05-24T03:37:38.058Z,51.72
2018-05-24T03:40:06.977Z,50.51
2018-05-24T03:42:36.013Z,49.42
2018-05-24T03:45:05.256Z,48.55
2018-05-24T03:47:35.319Z,48.14
2018-05-24T03:50:04.287Z,47.12
2018-05-24T03:52:33.374Z,46.61
2018-05-24T03:55:03.231Z,46.10
2018-05-24T03:57:32.285Z,47.09
2018-05-24T04:00:13.795Z,47.83
2018-05-24T04:02:54.645Z,46.42
2018-05-24T04:05:23.640Z,44.26
2018-05-24T04:07:52.579Z,43.63
2018-05-24T04:10:21.525Z,42.32
2018-05-24T04:12:52.265Z,41.69
2018-05-24T04:15:22.492Z,40.63
2018-05-24T04:17:51.478Z,38.64
2018-05-24T04:22:55.105Z,38.96
2018-05-24T04:25:25.221Z,37.93
2018-05-24T04:27:58.824Z,38.40
2018-05-24T04:30:27.810Z,38.43
2018-05-24T04:32:56.933Z,36.25
2018-05-24T04:38:00.329Z,36.08
2018-05-24T04:40:29.218Z,36.87
2018-05-24T04:45:35.763Z,36.28
2018-05-24T04:48:05.658Z,38.26
2018-05-24T04:50:35.893Z,36.53
2018-05-24T04:53:05.762Z,33.33
2018-05-24T04:55:34.649Z,35.21
2018-05-24T04:58:08.975Z,35.61
2018-05-24T05:00:37.901Z,36.36
2018-05-24T05:03:06.963Z,36.51
2018-05-24T05:05:36.671Z,34.77
2018-05-24T05:08:05.668Z,34.77
2018-05-24T05:10:34.663Z,36.21
2018-05-24T05:13:05.492Z,34.90
2018-05-24T05:15:34.341Z,34.70
2018-05-24T05:18:03.338Z,34.49
2018-05-24T05:20:32.512Z,33.79
2018-05-24T05:23:01.518Z,33.01
2018-05-24T05:25:30.501Z,30.98
2018-05-24T05:27:59.565Z,29.75
2018-05-24T05:30:28.431Z,30.21
2018-05-24T05:32:57.449Z,30.37
2018-05-24T05:35:26.550Z,31.19
2018-05-24T05:37:55.874Z,30.98
2018-05-24T05:40:24.842Z,30.12
2018-05-24T05:42:56.295Z,29.11
2018-05-24T05:45:25.495Z,28.17
2018-05-24T05:47:54.572Z,27.66
2018-05-24T05:50:25.116Z,31.20
2018-05-24T05:52:54.020Z,33.21
2018-05-24T05:55:23.254Z,33.66
2018-05-24T05:57:52.289Z,31.93
2018-05-24T06:00:21.442Z,34.73
2018-05-24T06:02:50.439Z,36.04
2018-05-24T06:05:19.601Z,36.01
2018-05-24T06:07:48.524Z,34.47
2018-05-24T06:10:17.345Z,34.01
2018-05-24T06:12:46.478Z,33.56
2018-05-24T06:15:15.383Z,32.15
2018-05-24T06:17:44.565Z,30.79
2018-05-24T06:20:16.093Z,29.43
2018-05-24T06:22:45.014Z,32.39
2018-05-24T06:25:14.829Z,31.54
2018-05-24T06:27:44.564Z,30.51
2018-05-24T06:30:13.535Z,29.41
2018-05-24T06:32:42.624Z,28.92
2018-05-24T06:35:12.474Z,28.20
2018-05-24T06:37:41.444Z,27.45
2018-05-24T06:40:10.327Z,26.34
2018-05-24T06:42:40.173Z,26.89
2018-05-24T06:45:09.038Z,27.46
2018-05-24T06:47:37.959Z,28.05
2018-05-24T06:50:08.676Z,30.84
2018-05-24T06:52:44.507Z,29.16
2018-05-24T06:55:13.612Z,28.20
2018-05-24T06:57:42.637Z,27.67
2018-05-24T07:00:11.558Z,26.72
2018-05-24T07:02:40.733Z,27.06
2018-05-24T07:05:09.732Z,28.46
2018-05-24T07:07:38.686Z,29.02
2018-05-24T07:10:08.704Z,26.99
2018-05-24T07:12:37.622Z,27.07
2018-05-24T07:15:06.586Z,27.20
2018-05-24T07:17:38.430Z,23.89
2018-05-24T07:20:07.342Z,25.88
2018-05-24T07:22:36.546Z,32.21
2018-05-24T07:25:05.648Z,31.38
2018-05-24T07:27:34.635Z,28.85
2018-05-24T07:30:03.742Z,28.65
2018-05-24T07:32:33.675Z,28.99
2018-05-24T07:35:02.538Z,29.55
2018-05-24T07:37:31.535Z,28.04
2018-05-24T07:40:00.529Z,29.80
2018-05-24T07:42:29.620Z,29.41
2018-05-24T07:44:58.545Z,29.14
2018-05-24T07:47:27.716Z,26.89
2018-05-24T07:49:56.704Z,27.88
2018-05-24T07:52:25.601Z,31.13
2018-05-24T07:57:31.565Z,32.30
2018-05-24T08:00:00.505Z,32.93
2018-05-24T08:02:29.566Z,33.58
2018-05-24T08:04:58.765Z,34.40
2018-05-24T08:07:27.674Z,39.09
2018-05-24T08:09:56.533Z,39.59
2018-05-24T08:14:59.455Z,38.50
2018-05-24T08:17:28.552Z,39.40
2018-05-24T08:19:57.567Z,43.21
2018-05-24T08:22:27.407Z,45.90
2018-05-24T08:24:56.452Z,45.86
2018-05-24T08:27:25.557Z,47.31
2018-05-24T08:29:57.333Z,48.48
2018-05-24T08:32:26.301Z,47.83
2018-05-24T08:34:55.196Z,46.29
2018-05-24T08:37:26.402Z,45.39
2018-05-24T08:39:55.432Z,47.97
2018-05-24T08:42:24.529Z,43.51
2018-05-24T08:44:53.582Z,42.74
2018-05-24T08:47:22.667Z,43.69
2018-05-24T08:49:51.824Z,43.62
2018-05-24T08:52:22.452Z,43.16
2018-05-24T08:54:51.548Z,44.56
2018-05-24T08:57:20.544Z,44.91
2018-05-24T09:02:24.167Z,45.10
2018-05-24T09:04:53.088Z,44.63
2018-05-24T09:07:22.074Z,43.51
2018-05-24T09:09:51.044Z,42.12
2018-05-24T09:12:20.037Z,43.12
2018-05-24T09:14:49.962Z,44.56
2018-05-24T09:17:19.053Z,42.56
2018-05-24T09:19:47.939Z,42.03
2018-05-24T09:22:16.839Z,41.82
2018-05-24T09:24:46.954Z,41.82
2018-05-24T09:27:16.262Z,42.29
2018-05-24T09:29:45.259Z,43.24
2018-05-24T09:32:14.244Z,42.52
2018-05-24T09:34:44.609Z,43.34
2018-05-24T09:37:13.654Z,43.42
2018-05-24T09:39:42.659Z,43.91
2018-05-24T09:42:11.652Z,43.22
2018-05-24T09:44:40.624Z,44.45
2018-05-24T09:47:09.945Z,42.42
2018-05-24T09:49:38.945Z,43.49
2018-05-24T09:52:07.891Z,44.68
2018-05-24T09:54:36.836Z,43.00
2018-05-24T09:57:06.234Z,42.53
2018-05-24T09:59:35.228Z,42.60
2018-05-24T10:02:04.259Z,44.34
2018-05-24T10:04:33.573Z,47.73
2018-05-24T10:07:02.662Z,48.54
2018-05-24T10:09:31.624Z,49.12
2018-05-24T10:12:00.612Z,48.12
2018-05-24T10:14:30.098Z,48.49
2018-05-24T10:17:00.140Z,49.57
2018-05-24T10:19:29.131Z,50.62
2018-05-24T10:21:58.018Z,49.24
2018-05-24T10:24:27.132Z,49.04
2018-05-24T10:26:56.005Z,49.15
2018-05-24T10:29:25.032Z,49.23
2018-05-24T10:31:53.997Z,50.47
2018-05-24T10:34:22.996Z,49.95
2018-05-24T10:36:51.985Z,49.64
2018-05-24T10:39:22.721Z,48.20
2018-05-24T10:41:51.611Z,50.89
2018-05-24T10:44:20.625Z,48.89
2018-05-24T10:46:51.236Z,50.87
2018-05-24T10:49:20.232Z,50.18
2018-05-24T10:51:49.126Z,48.34
2018-05-24T10:54:18.265Z,50.91
2018-05-24T10:56:47.162Z,53.65
2018-05-24T10:59:16.852Z,51.37
2018-05-24T11:04:19.830Z,52.35
2018-05-24T11:06:48.869Z,51.56
2018-05-24T11:09:18.739Z,52.29
2018-05-24T11:11:47.803Z,53.95
2018-05-24T11:14:16.936Z,51.83
2018-05-24T11:16:45.910Z,52.81
2018-05-24T11:19:14.690Z,53.27
2018-05-24T11:21:43.605Z,52.44
2018-05-24T11:24:12.711Z,51.77
2018-05-24T11:26:42.668Z,50.71
2018-05-24T11:29:11.821Z,52.33
2018-05-24T11:31:42.789Z,54.47
2018-05-24T11:34:11.758Z,53.80
2018-05-24T11:36:40.753Z,51.08
2018-05-24T11:39:10.563Z,51.63
2018-05-24T11:41:39.865Z,53.14
2018-05-24T11:44:09.704Z,53.43
2018-05-24T11:46:38.704Z,53.14
2018-05-24T11:49:07.668Z,54.35
2018-05-24T11:51:36.772Z,54.01
2018-05-24T11:56:39.669Z,54.17
2018-05-24T11:59:08.689Z,55.56
2018-05-24T12:01:39.402Z,54.45
2018-05-24T12:04:09.516Z,54.31
2018-05-24T12:06:38.409Z,53.19
2018-05-24T12:09:10.267Z,52.05
2018-05-24T12:11:39.156Z,50.86
2018-05-24T12:14:08.014Z,52.20
2018-05-24T12:16:37.871Z,51.50
2018-05-24T12:19:06.809Z,51.04
2018-05-24T12:21:35.746Z,49.93
2018-05-24T12:24:05.100Z,48.80
2018-05-24T12:26:34.187Z,51.35
2018-05-24T12:29:03.213Z,52.36
2018-05-24T12:34:06.355Z,53.00
2018-05-24T12:36:36.268Z,53.25
2018-05-24T12:39:05.272Z,52.65
2018-05-24T12:41:34.290Z,51.80
2018-05-24T12:44:04.375Z,51.75
2018-05-24T12:46:33.496Z,52.14
2018-05-24T12:49:02.517Z,52.36
2018-05-24T12:51:31.410Z,52.97
2018-05-24T12:54:01.326Z,53.45
2018-05-24T12:56:32.016Z,52.56
2018-05-24T12:59:01.865Z,53.06
2018-05-24T13:01:30.723Z,54.51
2018-05-24T13:03:59.610Z,53.10
2018-05-24T13:06:28.750Z,52.97
2018-05-24T13:08:57.703Z,52.11
2018-05-24T13:11:26.596Z,54.85
2018-05-24T13:13:56.712Z,55.91
2018-05-24T13:16:25.742Z,55.26
2018-05-24T13:22:11.042Z,54.54
2018-05-24T13:24:40.005Z,54.05
2018-05-24T13:27:14.829Z,54.59
2018-05-24T13:29:44.828Z,54.68
2018-05-24T13:32:13.781Z,53.90
2018-05-24T13:34:43.042Z,56.13
2018-05-24T13:42:23.266Z,54.79
2018-05-24T13:44:52.229Z,55.47
2018-05-24T13:50:04.753Z,56.31
2018-05-24T13:52:42.777Z,55.89
2018-05-24T13:55:15.938Z,55.68
2018-05-24T13:57:49.668Z,55.02
2018-05-24T14:00:21.311Z,55.66
2018-05-24T14:05:24.312Z,56.11
2018-05-24T14:07:55.359Z,55.31
2018-05-24T14:10:30.581Z,56.00
2018-05-24T14:18:10.213Z,55.80
2018-05-24T14:20:39.129Z,56.05
2018-05-24T14:25:41.852Z,56.50
2018-05-24T14:28:10.809Z,57.44
2018-05-24T14:30:39.701Z,56.29
2018-05-24T14:33:08.629Z,56.27
2018-05-24T14:35:37.487Z,56.04
2018-05-24T14:38:06.335Z,56.93
2018-05-24T14:45:43.067Z,57.26
2018-05-24T14:48:12.131Z,56.27
2018-05-24T14:50:41.218Z,55.94
2018-05-24T14:53:10.075Z,56.20
2018-05-24T14:55:39.099Z,56.20
2018-05-24T14:58:08.054Z,55.77
2018-05-24T15:00:37.775Z,55.47
2018-05-24T15:03:06.531Z,55.89
2018-05-24T15:05:35.596Z,57.21
2018-05-24T15:08:05.389Z,58.08
2018-05-24T15:10:34.306Z,58.26
2018-05-24T15:13:03.343Z,58.21
2018-05-24T15:15:32.251Z,58.92
2018-05-24T15:18:01.041Z,59.44
2018-05-24T15:20:29.931Z,59.47
2018-05-24T15:22:59.645Z,59.76
2018-05-24T15:25:28.629Z,59.82
2018-05-24T15:27:57.425Z,59.86
2018-05-24T15:30:27.135Z,59.93
2018-05-24T15:32:56.138Z,59.60
2018-05-24T15:35:24.968Z,59.89
2018-05-24T15:37:54.119Z,59.85
2018-05-24T15:40:23.116Z,60.02
2018-05-24T15:42:52.042Z,60.79
2018-05-24T15:47:55.522Z,62.54
2018-05-24T15:50:24.363Z,62.90
2018-05-24T15:52:53.373Z,62.71
2018-05-24T15:55:22.299Z,62.61
2018-05-24T15:57:51.191Z,61.22
2018-05-24T16:00:20.866Z,61.21
2018-05-24T16:02:49.796Z,61.56
2018-05-24T16:05:19.200Z,61.04
2018-05-24T16:07:50.831Z,60.90
2018-05-24T16:10:19.651Z,61.35
2018-05-24T16:12:48.843Z,61.98
2018-05-24T16:15:18.284Z,63.13
2018-05-24T16:17:47.416Z,63.98
2018-05-24T16:20:17.061Z,64.23
2018-05-24T16:22:47.074Z,63.93
2018-05-24T16:25:16.410Z,64.53
2018-05-24T16:27:45.581Z,65.15
2018-05-24T16:30:17.129Z,65.56
2018-05-24T16:32:45.954Z,65.94
2018-05-24T16:35:14.913Z,65.84
2018-05-24T16:37:44.735Z,66.23
2018-05-24T16:40:13.619Z,66.58
2018-05-24T16:42:42.509Z,66.53
2018-05-24T16:45:13.145Z,67.21
2018-05-24T16:47:42.033Z,68.43
2018-05-24T16:50:10.925Z,68.58
2018-05-24T16:52:42.066Z,69.31
2018-05-24T16:55:10.960Z,69.28
2018-05-24T16:57:39.812Z,69.90
2018-05-24T17:00:09.710Z,70.58
2018-05-24T17:02:38.619Z,70.50
2018-05-24T17:05:07.691Z,71.03
2018-05-24T17:07:38.348Z,71.52
2018-05-24T17:10:07.549Z,71.82
2018-05-24T17:12:36.577Z,72.47
2018-05-24T17:15:08.753Z,72.79
2018-05-24T17:17:37.847Z,73.43
2018-05-24T17:20:06.639Z,73.92
2018-05-24T17:22:35.530Z,74.42
2018-05-24T17:25:04.559Z,74.99
2018-05-24T17:27:33.451Z,75.36
2018-05-24T17:30:03.320Z,75.83
2018-05-24T17:32:32.347Z,75.53
2018-05-24T17:35:01.317Z,75.80
2018-05-24T17:37:32.778Z,75.78
2018-05-24T17:40:01.769Z,76.32
2018-05-24T17:42:30.762Z,76.30
2018-05-24T17:45:01.807Z,76.14
2018-05-24T17:47:30.696Z,75.89
2018-05-24T17:49:59.827Z,75.21
2018-05-24T17:55:05.867Z,69.11
2018-05-24T17:57:34.649Z,68.65
2018-05-24T18:00:03.754Z,69.26
2018-05-24T18:02:33.496Z,69.45
2018-05-24T18:05:02.562Z,68.87
2018-05-24T18:07:31.665Z,68.52
2018-05-24T18:10:01.406Z,68.04
2018-05-24T18:12:30.368Z,68.48
2018-05-24T18:14:59.466Z,64.16
2018-05-24T18:20:02.674Z,66.23
2018-05-24T18:22:31.564Z,61.83
2018-05-24T18:25:01.274Z,63.31
2018-05-24T18:27:30.275Z,61.17
2018-05-24T18:30:00.290Z,60.26
2018-05-24T18:32:29.285Z,59.53
2018-05-24T18:34:58.317Z,59.19
2018-05-24T18:37:27.275Z,58.99
2018-05-24T18:39:57.578Z,58.45
2018-05-24T18:42:26.589Z,58.92
2018-05-24T18:44:56.529Z,59.23
2018-05-24T18:47:25.503Z,59.63
2018-05-24T18:49:54.505Z,58.98
2018-05-24T18:52:23.318Z,58.52
2018-05-24T18:54:52.207Z,59.03
2018-05-24T18:57:21.119Z,58.54
2018-05-24T18:59:49.940Z,58.93
2018-05-24T19:02:18.954Z,58.66
2018-05-24T19:04:47.905Z,58.98
2018-05-24T19:07:16.888Z,59.13
2018-05-24T19:09:47.577Z,58.69
2018-05-24T19:12:16.466Z,58.53
2018-05-24T19:14:45.354Z,58.46
2018-05-24T19:17:14.612Z,58.36
2018-05-24T19:19:43.551Z,58.40
2018-05-24T19:22:12.553Z,58.82
2018-05-24T19:24:41.435Z,58.73
2018-05-24T19:27:10.443Z,58.99
2018-05-24T19:29:39.383Z,59.22
2018-05-24T19:32:10.411Z,59.13
2018-05-24T19:34:39.381Z,58.90
2018-05-24T19:37:09.579Z,58.45
2018-05-24T19:39:40.333Z,58.46
2018-05-24T19:42:09.210Z,58.53
2018-05-24T19:44:38.101Z,58.42
2018-05-24T19:47:06.999Z,58.70
2018-05-24T19:49:35.891Z,58.73
2018-05-24T19:52:04.849Z,58.97
2018-05-24T19:54:34.177Z,59.04
2018-05-24T19:57:03.173Z,59.08
2018-05-24T19:59:32.068Z,59.52
2018-05-24T20:02:01.164Z,59.79
2018-05-24T20:04:30.097Z,60.21
2018-05-24T20:06:58.930Z,60.55
2018-05-24T20:09:34.081Z,60.58
2018-05-24T20:12:03.072Z,60.64
2018-05-24T20:14:32.007Z,60.90
2018-05-24T20:17:00.864Z,61.29
2018-05-24T20:19:29.757Z,61.61
2018-05-24T20:21:58.649Z,61.95
2018-05-24T20:24:27.561Z,62.37
2018-05-24T20:26:56.398Z,62.41
2018-05-24T20:29:25.313Z,62.49
2018-05-24T20:31:55.241Z,62.39
2018-05-24T20:34:24.123Z,62.77
2018-05-24T20:36:53.015Z,62.47
2018-05-24T20:39:22.729Z,62.79
2018-05-24T20:41:51.601Z,63.05
2018-05-24T20:44:20.546Z,62.90
2018-05-24T20:46:50.325Z,62.44
2018-05-24T20:49:19.515Z,62.21
2018-05-24T20:51:48.342Z,62.09
2018-05-24T20:54:17.729Z,61.81
2018-05-24T20:56:46.447Z,62.31
2018-05-24T20:59:15.400Z,62.46
2018-05-24T21:01:44.314Z,63.32
2018-05-24T21:04:13.185Z,63.32
2018-05-24T21:06:42.187Z,63.86
2018-05-24T21:09:11.173Z,64.42
2018-05-24T21:11:39.967Z,64.87
2018-05-24T21:14:08.708Z,64.81
2018-05-24T21:16:37.552Z,64.71
2018-05-24T21:19:06.434Z,64.63
2018-05-24T21:21:35.227Z,65.07
2018-05-24T21:24:04.265Z,65.03
2018-05-24T21:26:33.116Z,64.67
2018-05-24T21:29:02.907Z,64.26
2018-05-24T21:31:31.719Z,63.79
2018-05-24T21:34:00.513Z,63.32
2018-05-24T21:36:29.428Z,62.63
2018-05-24T21:41:32.206Z,63.43
2018-05-24T21:44:01.298Z,63.69
2018-05-24T21:46:30.270Z,63.71
2018-05-24T21:48:59.172Z,63.92
2018-05-24T21:51:28.074Z,64.12
2018-05-24T21:53:57.711Z,64.07
2018-05-24T21:56:26.585Z,64.20
2018-05-24T21:58:55.456Z,64.46
2018-05-24T22:01:24.864Z,64.82
2018-05-24T22:03:53.866Z,65.58
2018-05-24T22:06:22.850Z,66.18
2018-05-24T22:08:52.665Z,66.65
2018-05-24T22:11:21.537Z,66.74
2018-05-24T22:13:50.349Z,66.62
2018-05-24T22:16:19.240Z,66.82
2018-05-24T22:18:47.978Z,66.81
2018-05-24T22:21:16.953Z,66.24
2018-05-24T22:26:20.132Z,66.78
2018-05-24T22:28:48.924Z,66.66
2018-05-24T22:31:19.662Z,66.55
2018-05-24T22:33:48.442Z,66.35
2018-05-24T22:36:17.269Z,65.92
2018-05-24T22:38:46.331Z,65.20
2018-05-24T22:41:15.330Z,65.35
2018-05-24T22:43:44.213Z,64.60
2018-05-24T22:46:13.212Z,64.29
2018-05-24T22:48:42.142Z,64.52
2018-05-24T22:51:11.099Z,64.85
2018-05-24T22:53:39.965Z,65.00
2018-05-24T22:56:08.757Z,65.85
2018-05-24T22:58:37.700Z,65.88
2018-05-24T23:01:06.871Z,66.07
2018-05-24T23:03:35.760Z,66.55
2018-05-24T23:06:04.737Z,66.86
2018-05-24T23:08:36.210Z,66.98
2018-05-24T23:11:05.200Z,67.71
2018-05-24T23:13:34.144Z,67.79
2018-05-24T23:18:37.650Z,67.97
2018-05-24T23:21:24.828Z,68.14
2018-05-24T23:23:59.460Z,67.81
2018-05-24T23:26:28.544Z,68.08
2018-05-24T23:28:57.445Z,67.86
2018-05-24T23:31:26.351Z,67.84
2018-05-24T23:33:56.989Z,67.62
2018-05-24T23:36:25.891Z,67.82
2018-05-24T23:38:54.750Z,67.98
2018-05-24T23:41:23.750Z,68.00
2018-05-24T23:43:52.743Z,68.16
2018-05-24T23:46:21.639Z,68.13
2018-05-24T23:48:51.403Z,67.84
2018-05-24T23:51:20.375Z,67.72
2018-05-24T23:53:49.246Z,67.68
2018-05-24T23:58:52.444Z,67.97
